createdAt,value
2018-10-19T00:01:13.112Z,16.90
2018-10-19T00:03:17.251Z,16.90
2018-10-19T00:05:21.397Z,16.90
2018-10-19T00:07:25.581Z,16.90
2018-10-19T00:09:30.516Z,16.90
2018-10-19T00:11:34.698Z,16.90
2018-10-19T00:13:39.053Z,16.90
2018-10-19T00:15:43.217Z,16.90
2018-10-19T00:17:47.359Z,16.80
2018-10-19T00:19:51.496Z,16.80
2018-10-19T00:21:55.663Z,16.90
2018-10-19T00:23:59.756Z,16.90
2018-10-19T00:26:05.361Z,16.90
2018-10-19T00:28:09.465Z,16.80
2018-10-19T00:30:13.559Z,16.90
2018-10-19T00:32:17.705Z,16.90
2018-10-19T00:34:21.936Z,16.90
2018-10-19T00:36:26.053Z,16.90
2018-10-19T00:38:30.229Z,16.90
2018-10-19T00:40:34.371Z,16.90
2018-10-19T00:42:38.519Z,16.90
2018-10-19T00:44:42.628Z,16.90
2018-10-19T00:46:46.784Z,16.90
2018-10-19T00:48:50.864Z,16.80
2018-10-19T00:50:55.015Z,16.90
2018-10-19T00:52:59.214Z,16.80
2018-10-19T00:55:03.265Z,16.80
2018-10-19T00:57:07.455Z,16.80
2018-10-19T00:59:11.583Z,16.80
2018-10-19T01:01:15.650Z,16.80
2018-10-19T01:03:19.964Z,16.80
2018-10-19T01:05:25.260Z,16.80
2018-10-19T01:07:29.373Z,16.80
2018-10-19T01:09:33.548Z,16.80
2018-10-19T01:11:37.732Z,16.80
2018-10-19T01:13:41.873Z,16.80
2018-10-19T01:15:46.002Z,16.70
2018-10-19T01:17:50.371Z,16.70
2018-10-19T01:19:54.488Z,16.70
2018-10-19T01:21:58.613Z,16.70
2018-10-19T01:24:02.734Z,16.70
2018-10-19T01:26:06.872Z,16.70
2018-10-19T01:28:11.541Z,16.70
2018-10-19T01:30:15.695Z,16.70
2018-10-19T01:32:19.809Z,16.70
2018-10-19T01:34:24.021Z,16.70
2018-10-19T01:36:33.504Z,16.70
2018-10-19T01:38:37.842Z,16.70
2018-10-19T01:40:42.036Z,16.70
2018-10-19T01:42:46.165Z,16.70
2018-10-19T01:44:56.797Z,16.70
2018-10-19T01:47:00.927Z,16.70
2018-10-19T01:49:06.056Z,16.70
2018-10-19T01:51:10.263Z,16.70
2018-10-19T01:53:14.431Z,16.60
2018-10-19T01:55:18.572Z,16.60
2018-10-19T01:57:23.258Z,16.60
2018-10-19T01:59:27.371Z,16.60
2018-10-19T02:01:31.502Z,16.60
2018-10-19T02:03:35.636Z,16.60
2018-10-19T02:05:40.173Z,16.60
2018-10-19T02:07:44.318Z,16.60
2018-10-19T02:09:48.439Z,16.60
2018-10-19T02:11:52.564Z,16.50
2018-10-19T02:13:56.704Z,16.50
2018-10-19T02:16:00.828Z,16.50
2018-10-19T02:18:05.193Z,16.50
2018-10-19T02:20:09.307Z,16.50
2018-10-19T02:22:13.447Z,16.50
2018-10-19T02:24:17.790Z,16.50
2018-10-19T02:26:21.899Z,16.50
2018-10-19T02:28:26.016Z,16.50
2018-10-19T02:30:30.149Z,16.50
2018-10-19T02:32:35.407Z,16.40
2018-10-19T02:34:39.529Z,16.40
2018-10-19T02:36:44.052Z,16.40
2018-10-19T02:38:48.188Z,16.40
2018-10-19T02:40:52.331Z,16.40
2018-10-19T02:42:56.414Z,16.40
2018-10-19T02:45:00.587Z,16.40
2018-10-19T02:47:04.902Z,16.40
2018-10-19T02:49:09.067Z,16.40
2018-10-19T02:51:13.329Z,16.40
2018-10-19T02:53:17.445Z,16.30
2018-10-19T02:55:21.552Z,16.30
2018-10-19T02:57:25.700Z,16.30
2018-10-19T02:59:29.849Z,16.30
2018-10-19T03:01:34.021Z,16.30
2018-10-19T03:03:38.193Z,16.30
2018-10-19T03:05:42.320Z,16.30
2018-10-19T03:07:46.519Z,16.30
2018-10-19T03:09:50.665Z,16.30
2018-10-19T03:11:55.597Z,16.30
2018-10-19T03:13:59.739Z,16.30
2018-10-19T03:16:03.905Z,16.30
2018-10-19T03:18:08.035Z,16.30
2018-10-19T03:20:12.328Z,16.30
2018-10-19T03:22:16.445Z,16.30
2018-10-19T03:24:20.558Z,16.30
2018-10-19T03:26:24.709Z,16.30
2018-10-19T03:28:28.808Z,16.30
2018-10-19T03:30:32.923Z,16.30
2018-10-19T03:32:37.069Z,16.30
2018-10-19T03:34:41.244Z,16.30
2018-10-19T03:36:45.388Z,16.30
2018-10-19T03:38:49.546Z,16.30
2018-10-19T03:40:54.418Z,16.30
2018-10-19T03:42:58.512Z,16.20
2018-10-19T03:45:02.747Z,16.20
2018-10-19T03:47:07.016Z,16.20
2018-10-19T03:49:11.257Z,16.20
2018-10-19T03:51:16.005Z,16.20
2018-10-19T03:53:20.160Z,16.20
2018-10-19T03:55:24.274Z,16.20
2018-10-19T03:57:28.405Z,16.10
2018-10-19T03:59:32.724Z,16.10
2018-10-19T04:01:36.905Z,16.10
2018-10-19T04:03:41.170Z,16.10
2018-10-19T04:05:45.299Z,16.10
2018-10-19T04:07:49.408Z,16.00
2018-10-19T04:09:53.560Z,16.00
2018-10-19T04:11:57.744Z,16.00
2018-10-19T04:14:02.030Z,16.00
2018-10-19T04:16:06.333Z,16.00
2018-10-19T04:18:10.488Z,16.00
2018-10-19T04:20:14.740Z,15.90
2018-10-19T04:22:18.852Z,15.90
2018-10-19T04:24:23.008Z,15.90
2018-10-19T04:26:27.155Z,15.90
2018-10-19T04:28:31.321Z,15.90
2018-10-19T04:30:37.302Z,15.90
2018-10-19T04:32:41.436Z,15.80
2018-10-19T04:34:48.444Z,15.90
2018-10-19T04:37:01.325Z,15.80
2018-10-19T04:39:07.388Z,15.80
2018-10-19T04:41:11.576Z,15.80
2018-10-19T04:43:16.277Z,15.80
2018-10-19T04:45:20.640Z,15.80
2018-10-19T04:47:24.754Z,15.80
2018-10-19T04:49:29.289Z,15.80
2018-10-19T04:51:33.501Z,15.80
2018-10-19T04:53:37.692Z,15.80
2018-10-19T04:55:41.744Z,15.80
2018-10-19T04:57:45.899Z,15.80
2018-10-19T04:59:50.017Z,15.80
2018-10-19T05:01:54.178Z,15.80
2018-10-19T05:03:58.308Z,15.80
2018-10-19T05:06:02.549Z,15.80
2018-10-19T05:08:06.704Z,15.80
2018-10-19T05:10:11.183Z,15.80
2018-10-19T05:12:16.607Z,15.80
2018-10-19T05:14:20.723Z,15.80
2018-10-19T05:16:25.047Z,15.80
2018-10-19T05:18:29.180Z,15.80
2018-10-19T05:20:33.379Z,15.80
2018-10-19T05:22:37.738Z,15.80
2018-10-19T05:24:42.031Z,15.80
2018-10-19T05:26:46.074Z,15.80
2018-10-19T05:28:50.231Z,15.80
2018-10-19T05:30:54.388Z,15.80
2018-10-19T05:32:58.582Z,15.90
2018-10-19T05:35:02.788Z,15.90
2018-10-19T05:37:06.863Z,15.90
2018-10-19T05:39:11.015Z,15.90
2018-10-19T05:41:15.316Z,15.90
2018-10-19T05:43:19.397Z,15.90
2018-10-19T05:45:23.475Z,15.90
2018-10-19T05:47:27.652Z,15.90
2018-10-19T05:49:31.760Z,15.90
2018-10-19T05:51:36.999Z,15.90
2018-10-19T05:53:41.355Z,15.90
2018-10-19T05:55:45.477Z,15.90
2018-10-19T05:57:49.616Z,15.90
2018-10-19T05:59:53.762Z,15.90
2018-10-19T06:01:57.897Z,15.90
2018-10-19T06:04:02.012Z,15.90
2018-10-19T06:06:06.314Z,15.90
2018-10-19T06:08:10.535Z,15.90
2018-10-19T06:10:14.734Z,15.90
2018-10-19T06:12:18.943Z,15.90
2018-10-19T06:14:23.050Z,15.90
2018-10-19T06:16:27.088Z,15.90
2018-10-19T06:18:32.451Z,15.90
2018-10-19T06:20:36.617Z,15.90
2018-10-19T06:22:40.731Z,15.90
2018-10-19T06:24:44.937Z,15.90
2018-10-19T06:26:49.187Z,15.90
2018-10-19T06:28:53.522Z,15.90
2018-10-19T06:30:57.686Z,15.90
2018-10-19T06:33:01.915Z,15.80
2018-10-19T06:35:06.312Z,15.90
2018-10-19T06:37:10.458Z,15.90
2018-10-19T06:39:14.599Z,15.90
2018-10-19T06:41:19.920Z,15.90
2018-10-19T06:43:24.230Z,15.90
2018-10-19T06:45:28.509Z,15.90
2018-10-19T06:47:32.603Z,15.90
2018-10-19T06:49:36.826Z,15.90
2018-10-19T06:51:41.008Z,15.90
2018-10-19T06:53:45.137Z,15.90
2018-10-19T06:55:49.610Z,15.90
2018-10-19T06:57:53.770Z,15.90
2018-10-19T06:59:57.865Z,15.90
2018-10-19T07:02:02.081Z,15.90
2018-10-19T07:04:06.658Z,15.90
2018-10-19T07:06:10.893Z,15.90
2018-10-19T07:08:14.964Z,15.90
2018-10-19T07:10:20.540Z,15.90
2018-10-19T07:12:24.652Z,15.90
2018-10-19T07:14:28.777Z,15.90
2018-10-19T07:16:32.903Z,15.90
2018-10-19T07:18:37.065Z,15.90
2018-10-19T07:20:41.206Z,15.90
2018-10-19T07:22:45.776Z,15.90
2018-10-19T07:24:53.404Z,15.90
2018-10-19T07:26:57.700Z,15.90
2018-10-19T07:29:02.828Z,16.00
2018-10-19T07:31:06.939Z,16.00
2018-10-19T07:33:11.161Z,16.00
2018-10-19T07:35:15.338Z,16.00
2018-10-19T07:37:19.403Z,16.00
2018-10-19T07:39:23.588Z,16.00
2018-10-19T07:41:27.707Z,16.00
2018-10-19T07:43:31.983Z,16.00
2018-10-19T07:45:36.124Z,16.00
2018-10-19T07:47:40.284Z,16.00
2018-10-19T07:49:44.519Z,16.00
2018-10-19T07:51:49.890Z,16.00
2018-10-19T07:53:54.080Z,16.00
2018-10-19T07:55:58.146Z,16.00
2018-10-19T07:58:03.588Z,16.00
2018-10-19T08:00:09.315Z,16.10
2018-10-19T08:02:13.942Z,16.10
2018-10-19T08:04:17.993Z,16.10
2018-10-19T08:06:22.169Z,16.10
2018-10-19T08:08:26.303Z,16.10
2018-10-19T08:10:30.433Z,16.10
2018-10-19T08:12:34.558Z,16.10
2018-10-19T08:14:38.755Z,16.10
2018-10-19T08:16:42.921Z,16.10
2018-10-19T08:18:47.065Z,16.10
2018-10-19T08:20:51.277Z,16.20
2018-10-19T08:22:55.478Z,16.20
2018-10-19T08:24:59.577Z,16.20
2018-10-19T08:27:03.760Z,16.20
2018-10-19T08:29:08.129Z,16.20
2018-10-19T08:31:12.267Z,16.20
2018-10-19T08:33:16.457Z,16.30
2018-10-19T08:35:20.635Z,16.30
2018-10-19T08:37:24.825Z,16.30
2018-10-19T08:39:30.084Z,16.30
2018-10-19T08:41:34.260Z,16.30
2018-10-19T08:43:38.404Z,16.40
2018-10-19T08:45:42.497Z,16.40
2018-10-19T08:47:46.705Z,16.40
2018-10-19T08:49:50.765Z,16.40
2018-10-19T08:51:54.891Z,16.40
2018-10-19T08:53:58.991Z,16.40
2018-10-19T08:56:03.174Z,16.40
2018-10-19T08:58:07.421Z,16.50
2018-10-19T09:00:12.523Z,16.50
2018-10-19T09:02:16.791Z,16.50
2018-10-19T09:04:21.296Z,16.60
2018-10-19T09:06:25.582Z,16.60
2018-10-19T09:08:29.853Z,16.60
2018-10-19T09:10:33.999Z,16.60
2018-10-19T09:12:38.228Z,16.70
2018-10-19T09:14:59.593Z,16.60
2018-10-19T09:17:03.763Z,16.70
2018-10-19T09:19:07.830Z,16.70
2018-10-19T09:21:12.782Z,16.80
2018-10-19T09:23:16.936Z,16.80
2018-10-19T09:25:21.037Z,16.80
2018-10-19T09:27:25.210Z,16.90
2018-10-19T09:29:29.393Z,17.00
2018-10-19T09:31:33.652Z,17.10
2018-10-19T09:33:38.269Z,17.10
2018-10-19T09:35:42.464Z,17.20
2018-10-19T09:37:46.516Z,17.20
2018-10-19T09:39:50.629Z,17.20
2018-10-19T09:41:54.819Z,17.30
2018-10-19T09:43:59.024Z,17.30
2018-10-19T09:46:03.124Z,17.40
2018-10-19T09:48:07.272Z,17.40
2018-10-19T09:50:11.379Z,17.50
2018-10-19T09:52:15.537Z,17.60
2018-10-19T09:54:19.627Z,17.60
2018-10-19T09:56:23.890Z,17.70
2018-10-19T09:58:28.071Z,17.80
2018-10-19T10:00:37.505Z,17.80
2018-10-19T10:02:41.666Z,17.90
2018-10-19T10:04:45.767Z,17.90
2018-10-19T10:06:49.920Z,18.00
2018-10-19T10:08:54.082Z,18.00
2018-10-19T10:11:00.057Z,18.00
2018-10-19T10:13:04.271Z,18.10
2018-10-19T10:15:08.491Z,18.10
2018-10-19T10:17:12.618Z,18.20
2018-10-19T10:19:17.820Z,18.20
2018-10-19T10:21:21.986Z,18.30
2018-10-19T10:23:26.273Z,18.30
2018-10-19T10:25:30.375Z,18.40
2018-10-19T10:27:34.468Z,18.40
2018-10-19T10:29:38.600Z,18.50
2018-10-19T10:31:42.742Z,18.50
2018-10-19T10:33:46.920Z,18.60
2018-10-19T10:35:51.149Z,18.60
2018-10-19T10:37:55.654Z,18.70
2018-10-19T10:39:59.787Z,18.70
2018-10-19T10:42:18.704Z,18.80
2018-10-19T10:44:22.900Z,18.80
2018-10-19T10:46:27.096Z,18.90
2018-10-19T10:48:31.254Z,19.00
2018-10-19T10:50:35.437Z,19.10
2018-10-19T10:52:39.590Z,19.10
2018-10-19T10:54:43.723Z,19.20
2018-10-19T10:56:47.927Z,19.30
2018-10-19T10:58:52.184Z,19.30
2018-10-19T11:00:56.432Z,19.50
2018-10-19T11:03:01.282Z,19.50
2018-10-19T11:05:06.058Z,19.60
2018-10-19T11:07:10.434Z,19.70
2018-10-19T11:09:14.501Z,19.80
2018-10-19T11:11:18.888Z,19.90
2018-10-19T11:13:22.992Z,20.00
2018-10-19T11:15:27.189Z,20.10
2018-10-19T11:17:31.343Z,20.20
2018-10-19T11:19:35.504Z,20.20
2018-10-19T11:21:39.633Z,20.20
2018-10-19T11:23:43.789Z,20.30
2018-10-19T11:25:48.093Z,20.30
2018-10-19T11:27:52.278Z,20.20
2018-10-19T11:29:56.431Z,20.30
2018-10-19T11:32:01.343Z,20.20
2018-10-19T11:34:05.720Z,20.20
2018-10-19T11:36:11.146Z,20.20
2018-10-19T11:38:15.420Z,20.20
2018-10-19T11:40:26.626Z,20.20
2018-10-19T11:42:30.759Z,20.20
2018-10-19T11:44:34.918Z,20.20
2018-10-19T11:46:39.070Z,20.10
2018-10-19T11:48:44.039Z,20.10
2018-10-19T11:50:48.197Z,20.10
2018-10-19T11:52:52.494Z,20.10
2018-10-19T11:54:56.810Z,20.10
2018-10-19T11:57:01.008Z,20.10
2018-10-19T11:59:05.663Z,20.10
2018-10-19T12:01:09.929Z,20.10
2018-10-19T12:03:14.004Z,20.10
2018-10-19T12:05:18.135Z,20.20
2018-10-19T12:07:22.286Z,20.20
2018-10-19T12:09:26.816Z,20.20
2018-10-19T12:11:31.016Z,20.20
2018-10-19T12:13:35.233Z,20.20
2018-10-19T12:15:39.346Z,20.20
2018-10-19T12:17:44.120Z,20.30
2018-10-19T12:19:48.226Z,20.20
2018-10-19T12:21:52.576Z,20.30
2018-10-19T12:23:56.748Z,20.30
2018-10-19T12:26:00.983Z,20.30
2018-10-19T12:28:05.205Z,20.30
2018-10-19T12:30:10.516Z,20.30
2018-10-19T12:32:14.728Z,20.30
2018-10-19T12:34:18.884Z,20.30
2018-10-19T12:36:23.206Z,20.30
2018-10-19T12:38:28.652Z,20.30
2018-10-19T12:40:32.805Z,20.30
2018-10-19T12:42:37.428Z,20.30
2018-10-19T12:44:41.579Z,20.30
2018-10-19T12:47:02.673Z,20.20
2018-10-19T12:49:07.148Z,20.20
2018-10-19T12:51:11.346Z,20.20
2018-10-19T12:53:15.535Z,20.20
2018-10-19T12:55:19.621Z,20.20
2018-10-19T12:57:23.853Z,20.20
2018-10-19T12:59:28.076Z,20.20
2018-10-19T13:01:32.739Z,20.20
2018-10-19T13:03:37.534Z,20.10
2018-10-19T13:05:41.648Z,20.20
2018-10-19T13:07:45.765Z,20.20
2018-10-19T13:09:50.058Z,20.20
2018-10-19T13:11:54.194Z,20.20
2018-10-19T13:13:58.303Z,20.20
2018-10-19T13:16:03.099Z,20.20
2018-10-19T13:18:07.294Z,20.20
2018-10-19T13:20:11.683Z,20.20
2018-10-19T13:22:15.775Z,20.20
2018-10-19T13:24:19.908Z,20.10
2018-10-19T13:26:24.077Z,20.20
2018-10-19T13:28:28.220Z,20.20
2018-10-19T13:30:32.365Z,20.20
2018-10-19T13:32:37.672Z,20.20
2018-10-19T13:34:41.820Z,20.20
2018-10-19T13:36:46.007Z,20.20
2018-10-19T13:38:50.121Z,20.20
2018-10-19T13:40:54.913Z,20.20
2018-10-19T13:42:59.078Z,20.20
2018-10-19T13:45:03.232Z,20.20
2018-10-19T13:47:07.371Z,20.10
2018-10-19T13:49:11.459Z,20.10
2018-10-19T13:51:15.839Z,20.10
2018-10-19T13:53:19.929Z,20.10
2018-10-19T13:55:24.526Z,20.10
2018-10-19T13:57:28.650Z,20.10
2018-10-19T13:59:32.792Z,20.10
2018-10-19T14:01:36.924Z,20.10
2018-10-19T14:03:41.275Z,20.10
2018-10-19T14:05:45.448Z,20.00
2018-10-19T14:07:49.473Z,20.00
2018-10-19T14:09:53.635Z,20.00
2018-10-19T14:11:58.001Z,20.00
2018-10-19T14:14:02.202Z,20.00
2018-10-19T14:16:07.311Z,20.00
2018-10-19T14:18:11.533Z,20.00
2018-10-19T14:20:15.634Z,20.00
2018-10-19T14:22:19.796Z,20.00
2018-10-19T14:24:23.940Z,20.00
2018-10-19T14:26:28.224Z,20.00
2018-10-19T14:28:32.380Z,20.00
2018-10-19T14:30:36.529Z,20.00
2018-10-19T14:32:41.412Z,20.00
2018-10-19T14:34:45.581Z,20.00
2018-10-19T14:36:49.737Z,20.00
2018-10-19T14:38:54.884Z,20.00
2018-10-19T14:40:59.114Z,20.00
2018-10-19T14:43:03.286Z,19.90
2018-10-19T14:48:49.868Z,19.90
2018-10-19T14:50:54.067Z,19.90
2018-10-19T14:52:58.059Z,19.80
2018-10-19T14:55:02.136Z,19.80
2018-10-19T14:57:06.464Z,19.80
2018-10-19T14:59:10.633Z,19.80
2018-10-19T15:01:15.812Z,19.80
2018-10-19T15:03:19.926Z,19.80
2018-10-19T15:05:28.800Z,19.70
2018-10-19T15:07:33.036Z,19.70
2018-10-19T15:09:37.302Z,19.70
2018-10-19T15:11:42.152Z,19.70
2018-10-19T15:13:45.884Z,19.70
2018-10-19T15:15:49.996Z,19.70
2018-10-19T15:17:54.167Z,19.70
2018-10-19T15:19:58.283Z,19.70
2018-10-19T15:22:02.393Z,19.70
2018-10-19T15:24:06.673Z,19.60
2018-10-19T15:26:10.769Z,19.70
2018-10-19T15:28:16.051Z,19.70
2018-10-19T15:30:20.616Z,19.70
2018-10-19T15:32:24.716Z,19.70
2018-10-19T15:34:29.166Z,19.60
2018-10-19T15:36:33.545Z,19.60
2018-10-19T15:38:38.416Z,19.60
2018-10-19T15:40:42.971Z,19.60
2018-10-19T15:42:47.265Z,19.60
2018-10-19T15:44:51.459Z,19.60
2018-10-19T15:46:58.987Z,19.60
2018-10-19T15:49:03.377Z,19.50
2018-10-19T15:51:07.629Z,19.60
2018-10-19T15:53:11.760Z,19.50
2018-10-19T15:55:16.462Z,19.60
2018-10-19T15:57:20.686Z,19.50
2018-10-19T15:59:24.897Z,19.50
2018-10-19T16:01:29.039Z,19.50
2018-10-19T16:03:33.862Z,19.50
2018-10-19T16:05:38.327Z,19.50
2018-10-19T16:07:42.549Z,19.50
2018-10-19T16:09:46.946Z,19.40
2018-10-19T16:11:51.149Z,19.40
2018-10-19T16:13:55.332Z,19.40
2018-10-19T16:15:59.530Z,19.40
2018-10-19T16:18:04.460Z,19.40
2018-10-19T16:20:09.996Z,19.40
2018-10-19T16:22:14.181Z,19.40
2018-10-19T16:24:18.648Z,19.30
2018-10-19T16:26:22.868Z,19.30
2018-10-19T16:28:27.087Z,19.30
2018-10-19T16:30:31.282Z,19.30
2018-10-19T16:32:35.462Z,19.30
2018-10-19T16:34:39.663Z,19.30
2018-10-19T16:36:43.787Z,19.30
2018-10-19T16:38:48.020Z,19.20
2018-10-19T16:40:52.240Z,19.20
2018-10-19T16:42:56.748Z,19.20
2018-10-19T16:45:01.020Z,19.20
2018-10-19T16:47:06.284Z,19.20
2018-10-19T16:49:10.432Z,19.20
2018-10-19T16:51:14.863Z,19.10
2018-10-19T16:53:19.970Z,19.10
2018-10-19T16:55:24.150Z,19.10
2018-10-19T16:57:28.336Z,19.10
2018-10-19T16:59:32.541Z,19.10
2018-10-19T17:01:36.780Z,19.10
2018-10-19T17:03:40.878Z,19.00
2018-10-19T17:05:45.137Z,19.10
2018-10-19T17:07:49.273Z,19.00
2018-10-19T17:09:53.401Z,19.00
2018-10-19T17:11:58.681Z,19.00
2018-10-19T17:14:02.822Z,19.00
2018-10-19T17:16:07.093Z,18.90
2018-10-19T17:18:12.516Z,18.90
2018-10-19T17:20:16.692Z,18.90
2018-10-19T17:22:20.833Z,18.90
2018-10-19T17:24:25.071Z,18.90
2018-10-19T17:26:29.157Z,18.90
2018-10-19T17:28:33.303Z,18.90
2018-10-19T17:30:37.428Z,18.90
2018-10-19T17:32:41.803Z,18.90
2018-10-19T17:34:45.897Z,18.80
2018-10-19T17:36:50.036Z,18.80
2018-10-19T17:38:54.256Z,18.80
2018-10-19T17:40:58.693Z,18.80
2018-10-19T17:43:02.890Z,18.80
2018-10-19T17:45:08.650Z,18.80
2018-10-19T17:47:13.021Z,18.70
2018-10-19T17:49:17.213Z,18.70
2018-10-19T17:51:21.469Z,18.70
2018-10-19T17:53:25.727Z,18.70
2018-10-19T17:55:29.936Z,18.60
2018-10-19T17:57:34.076Z,18.60
2018-10-19T17:59:38.237Z,18.60
2018-10-19T18:01:42.462Z,18.50
2018-10-19T18:03:46.647Z,18.60
2018-10-19T18:05:50.768Z,18.50
2018-10-19T18:07:54.925Z,18.50
2018-10-19T18:09:59.133Z,18.40
2018-10-19T18:12:03.311Z,18.40
2018-10-19T18:14:07.458Z,18.30
2018-10-19T18:16:11.658Z,18.30
2018-10-19T18:18:15.783Z,18.20
2018-10-19T18:20:19.994Z,18.20
2018-10-19T18:22:24.479Z,18.20
2018-10-19T18:24:28.303Z,18.20
2018-10-19T18:26:32.421Z,18.10
2018-10-19T18:28:36.495Z,18.10
2018-10-19T18:30:41.806Z,18.00
2018-10-19T18:32:45.977Z,18.00
2018-10-19T18:34:50.169Z,18.00
2018-10-19T18:36:54.289Z,17.90
2018-10-19T18:38:58.469Z,17.90
2018-10-19T18:41:02.832Z,17.80
2018-10-19T18:43:07.103Z,17.80
2018-10-19T18:45:11.336Z,17.80
2018-10-19T18:47:15.658Z,17.70
2018-10-19T18:49:19.794Z,17.70
2018-10-19T18:51:24.052Z,17.60
2018-10-19T18:53:28.179Z,17.50
2018-10-19T18:55:32.310Z,17.50
2018-10-19T18:57:36.608Z,17.40
2018-10-19T18:59:41.858Z,17.40
2018-10-19T19:01:46.053Z,17.20
2018-10-19T19:03:50.131Z,17.30
2018-10-19T19:05:54.386Z,17.20
2018-10-19T19:07:58.557Z,17.10
2018-10-19T19:10:18.283Z,17.10
2018-10-19T19:12:22.562Z,17.10
2018-10-19T19:14:28.017Z,17.00
2018-10-19T19:16:32.162Z,17.00
2018-10-19T19:18:36.307Z,16.90
2018-10-19T19:20:40.548Z,16.90
2018-10-19T19:22:44.697Z,16.90
2018-10-19T19:24:54.087Z,16.80
2018-10-19T19:26:58.256Z,16.80
2018-10-19T19:29:02.443Z,16.80
2018-10-19T19:31:06.687Z,16.80
2018-10-19T19:33:16.238Z,16.70
2018-10-19T19:35:20.793Z,16.70
2018-10-19T19:37:24.936Z,16.60
2018-10-19T19:39:29.180Z,16.60
2018-10-19T19:41:38.600Z,16.60
2018-10-19T19:43:43.314Z,16.50
2018-10-19T19:45:47.491Z,16.50
2018-10-19T19:47:56.935Z,16.50
2018-10-19T19:50:02.603Z,16.50
2018-10-19T19:52:06.994Z,16.50
2018-10-19T19:54:11.220Z,16.40
2018-10-19T19:56:15.442Z,16.40
2018-10-19T19:58:19.492Z,16.40
2018-10-19T20:00:23.709Z,16.40
2018-10-19T20:02:27.804Z,16.30
2018-10-19T20:04:31.987Z,16.30
2018-10-19T20:06:36.272Z,16.30
2018-10-19T20:08:40.387Z,16.20
2018-10-19T20:10:44.493Z,16.20
2018-10-19T20:12:48.605Z,16.20
2018-10-19T20:14:52.748Z,16.20
2018-10-19T20:16:57.038Z,16.20
2018-10-19T20:19:01.168Z,16.20
2018-10-19T20:21:05.849Z,16.20
2018-10-19T20:23:10.140Z,16.10
2018-10-19T20:25:14.209Z,16.10
2018-10-19T20:27:18.415Z,16.10
2018-10-19T20:29:23.627Z,16.10
2018-10-19T20:31:27.953Z,16.10
2018-10-19T20:33:32.111Z,16.00
2018-10-19T20:35:36.300Z,16.00
2018-10-19T20:37:40.447Z,16.00
2018-10-19T20:39:44.581Z,15.90
2018-10-19T20:41:48.664Z,15.90
2018-10-19T20:43:52.822Z,15.90
2018-10-19T20:45:56.940Z,15.80
2018-10-19T20:48:01.055Z,15.80
2018-10-19T20:50:05.232Z,15.70
2018-10-19T20:52:09.354Z,15.70
2018-10-19T20:54:13.502Z,15.60
2018-10-19T20:56:17.676Z,15.60
2018-10-19T20:58:21.865Z,15.60
2018-10-19T21:00:25.971Z,15.50
2018-10-19T21:02:30.089Z,15.40
2018-10-19T21:04:34.195Z,15.40
2018-10-19T21:06:38.348Z,15.40
2018-10-19T21:08:42.441Z,15.30
2018-10-19T21:10:46.553Z,15.30
2018-10-19T21:12:50.882Z,15.20
2018-10-19T21:14:55.041Z,15.20
2018-10-19T21:16:59.395Z,15.20
2018-10-19T21:19:04.111Z,15.10
2018-10-19T21:21:08.585Z,15.10
2018-10-19T21:23:12.845Z,15.00
2018-10-19T21:25:16.991Z,15.00
2018-10-19T21:27:21.208Z,14.90
2018-10-19T21:29:25.409Z,14.90
2018-10-19T21:31:29.489Z,14.80
2018-10-19T21:33:33.680Z,14.80
2018-10-19T21:35:37.914Z,14.70
2018-10-19T21:37:42.093Z,14.70
2018-10-19T21:39:46.248Z,14.70
2018-10-19T21:41:50.365Z,14.60
2018-10-19T21:43:54.549Z,14.60
2018-10-19T21:45:58.766Z,14.60
2018-10-19T21:48:02.854Z,14.60
2018-10-19T21:50:08.125Z,14.50
2018-10-19T21:52:12.227Z,14.50
2018-10-19T21:54:16.856Z,14.50
2018-10-19T21:56:21.028Z,14.50
2018-10-19T21:58:25.173Z,14.50
2018-10-19T22:00:29.255Z,14.40
2018-10-19T22:02:33.412Z,14.40
2018-10-19T22:04:37.559Z,14.30
2018-10-19T22:06:41.657Z,14.30
2018-10-19T22:08:46.753Z,14.30
2018-10-19T22:10:50.911Z,14.30
2018-10-19T22:12:55.163Z,14.20
2018-10-19T22:14:59.243Z,14.10
2018-10-19T22:17:04.750Z,14.10
2018-10-19T22:19:09.895Z,14.10
2018-10-19T22:21:14.029Z,14.00
2018-10-19T22:23:18.188Z,14.00
2018-10-19T22:25:22.332Z,14.00
2018-10-19T22:27:26.396Z,13.90
2018-10-19T22:29:30.557Z,13.90
2018-10-19T22:31:34.848Z,13.90
2018-10-19T22:33:38.993Z,13.80
2018-10-19T22:35:43.808Z,13.80
2018-10-19T22:37:47.929Z,13.70
2018-10-19T22:39:52.529Z,13.70
2018-10-19T22:41:56.619Z,13.70
2018-10-19T22:44:00.774Z,13.70
2018-10-19T22:46:04.916Z,13.60
2018-10-19T22:48:09.123Z,13.60
2018-10-19T22:50:13.244Z,13.60
2018-10-19T22:52:17.295Z,13.50
2018-10-19T22:54:21.433Z,13.50
2018-10-19T22:56:25.592Z,13.50
2018-10-19T22:58:29.707Z,13.50
2018-10-19T23:00:33.865Z,13.50
2018-10-19T23:02:37.971Z,13.40
2018-10-19T23:04:42.101Z,13.40
2018-10-19T23:06:46.353Z,13.40
2018-10-19T23:08:50.413Z,13.40
2018-10-19T23:10:54.524Z,13.40
2018-10-19T23:12:58.681Z,13.40
2018-10-19T23:15:02.733Z,13.30
2018-10-19T23:17:06.913Z,13.30
2018-10-19T23:19:11.058Z,13.30
2018-10-19T23:21:15.115Z,13.30
2018-10-19T23:23:19.229Z,13.30
2018-10-19T23:25:23.363Z,13.30
2018-10-19T23:27:27.484Z,13.20
2018-10-19T23:29:31.640Z,13.20
2018-10-19T23:31:35.834Z,13.20
2018-10-19T23:33:39.856Z,13.20
2018-10-19T23:35:45.199Z,13.10
2018-10-19T23:37:49.376Z,13.10
2018-10-19T23:39:53.491Z,13.10
2018-10-19T23:41:57.609Z,13.00
2018-10-19T23:44:01.733Z,13.00
2018-10-19T23:46:06.061Z,12.90
2018-10-19T23:48:10.164Z,12.90
2018-10-19T23:50:14.280Z,12.80
2018-10-19T23:52:18.361Z,12.80
2018-10-19T23:54:22.501Z,12.80
2018-10-19T23:56:26.596Z,12.70
2018-10-19T23:58:30.758Z,12.70
